Time;durP1;ratioP1;P1;durP2;ratioP2;P2;SDS_P1;SDS_P2;PMS_P1;PMS_P2;Temp;Humidity;BMP_temperature;BMP_pressure;BME280_temperature;BME280_humidity;BME280_pressure;Samples;Min_cycle;Max_cycle;Signal;HPM_P1;HPM_P2
2021/08/26 00:00:17;;;;;;;11.13;5.35;;;44.60;21.50;;;;;;4928681;29;20418;-60
2021/08/26 00:05:50;;;;;;;6.95;5.22;;;44.70;22.30;;;;;;4930311;29;20132;-58
2021/08/26 00:08:19;;;;;;;12.90;6.00;;;44.70;22.00;;;;;;4928186;29;20066;-61
2021/08/26 00:10:46;;;;;;;8.20;5.05;;;44.50;21.90;;;;;;4927020;29;20084;-60
2021/08/26 00:13:14;;;;;;;8.35;5.22;;;44.40;21.80;;;;;;4927094;29;20085;-59
2021/08/26 00:15:53;;;;;;;6.03;4.88;;;44.30;21.90;;;;;;4924855;29;20074;-60
2021/08/26 00:18:21;;;;;;;14.23;5.80;;;44.20;22.20;;;;;;4929780;29;20057;-59
2021/08/26 00:20:51;;;;;;;9.25;5.30;;;44.20;22.20;;;;;;4925328;29;20092;-59
2021/08/26 00:23:18;;;;;;;11.05;5.88;;;44.10;22.30;;;;;;4927839;29;20070;-58
2021/08/26 00:25:45;;;;;;;7.75;4.85;;;44.00;22.40;;;;;;4916324;29;20525;-58
2021/08/26 00:28:11;;;;;;;8.25;5.35;;;44.00;22.20;;;;;;4925090;29;20552;-60
2021/08/26 00:30:38;;;;;;;13.88;5.10;;;43.90;22.10;;;;;;4930950;29;20447;-64
2021/08/26 00:33:05;;;;;;;11.95;5.05;;;43.90;22.20;;;;;;4929573;29;20091;-60
2021/08/26 00:35:32;;;;;;;7.20;4.70;;;43.80;22.00;;;;;;4923166;29;20530;-59
2021/08/26 00:37:58;;;;;;;11.48;5.13;;;43.70;22.50;;;;;;4930403;29;20607;-59
2021/08/26 00:40:25;;;;;;;8.23;5.05;;;43.60;22.60;;;;;;4914882;29;20529;-60
2021/08/26 00:42:52;;;;;;;8.32;4.95;;;43.60;22.20;;;;;;4940292;29;20085;-59
2021/08/26 00:45:18;;;;;;;11.57;5.50;;;43.50;22.70;;;;;;4928416;29;20078;-59
2021/08/26 00:47:48;;;;;;;8.93;6.13;;;43.40;22.90;;;;;;4936692;29;20120;-60
2021/08/26 00:50:15;;;;;;;11.93;6.10;;;43.40;22.20;;;;;;4933975;29;20426;-59
2021/08/26 00:52:45;;;;;;;16.23;5.72;;;43.40;22.60;;;;;;4922536;29;20630;-59
2021/08/26 00:55:13;;;;;;;12.05;5.90;;;43.20;22.70;;;;;;4928146;29;20073;-57
2021/08/26 00:57:40;;;;;;;9.50;4.75;;;43.10;23.00;;;;;;4931218;29;20080;-59
2021/08/26 01:00:11;;;;;;;7.43;4.65;;;43.10;22.90;;;;;;4932336;29;20086;-58
2021/08/26 01:02:53;;;;;;;8.63;5.25;;;43.00;23.10;;;;;;4931355;29;20125;-58
2021/08/26 01:05:56;;;;;;;21.80;5.78;;;42.80;23.00;;;;;;4929467;28;20076;-57
2021/08/26 01:08:40;;;;;;;16.25;5.80;;;42.80;23.50;;;;;;4928287;29;20076;-54
2021/08/26 01:11:08;;;;;;;13.07;5.45;;;42.80;23.50;;;;;;4928966;29;20534;-57
2021/08/26 01:13:40;;;;;;;11.45;5.43;;;42.70;23.70;;;;;;4930025;29;20194;-58
2021/08/26 01:16:09;;;;;;;6.03;5.22;;;42.60;23.60;;;;;;4931166;29;20179;-55
2021/08/26 01:18:44;;;;;;;6.85;5.00;;;42.50;23.30;;;;;;4927341;29;20082;-53
2021/08/26 01:21:12;;;;;;;7.30;5.55;;;42.50;23.50;;;;;;4925176;29;20068;-57
2021/08/26 01:23:47;;;;;;;11.70;5.28;;;42.40;23.90;;;;;;4923939;29;20195;-57
2021/08/26 01:26:42;;;;;;;13.37;5.73;;;42.30;23.70;;;;;;4929943;29;20603;-56
2021/08/26 01:29:11;;;;;;;11.60;5.90;;;42.20;23.70;;;;;;4929334;29;20080;-56
2021/08/26 01:31:40;;;;;;;8.48;5.25;;;42.10;23.80;;;;;;4926769;29;20101;-54
2021/08/26 01:34:07;;;;;;;10.40;5.53;;;42.10;24.10;;;;;;4923845;29;20138;-55
2021/08/26 01:36:35;;;;;;;11.15;4.88;;;42.00;24.10;;;;;;4916391;29;20076;-56
2021/08/26 01:39:07;;;;;;;11.95;5.78;;;41.90;23.90;;;;;;4927374;29;20171;-55
2021/08/26 01:41:51;;;;;;;11.00;5.85;;;41.80;24.10;;;;;;4922487;29;22695;-58
2021/08/26 01:44:21;;;;;;;12.93;5.80;;;41.70;24.10;;;;;;4923524;29;20151;-53
2021/08/26 01:46:48;;;;;;;9.73;5.72;;;41.60;24.00;;;;;;4927169;29;20426;-53
2021/08/26 01:49:15;;;;;;;8.88;6.38;;;41.50;24.20;;;;;;4925072;29;20112;-58
2021/08/26 01:51:42;;;;;;;15.98;6.43;;;41.50;24.30;;;;;;4925066;29;20088;-58
2021/08/26 01:54:09;;;;;;;8.82;6.03;;;41.30;24.20;;;;;;4925945;29;20457;-55
2021/08/26 01:56:38;;;;;;;13.13;5.90;;;41.20;24.20;;;;;;4927577;29;20088;-58
2021/08/26 01:59:05;;;;;;;9.57;5.13;;;41.20;24.10;;;;;;4922583;29;20751;-54
2021/08/26 02:01:31;;;;;;;6.53;5.70;;;41.10;23.80;;;;;;4928016;29;20091;-56
2021/08/26 02:03:58;;;;;;;12.88;6.05;;;41.00;24.40;;;;;;4927595;29;20537;-57
2021/08/26 02:06:24;;;;;;;18.30;6.00;;;40.90;24.40;;;;;;4926370;29;20089;-58
2021/08/26 02:08:51;;;;;;;11.60;6.30;;;40.90;25.00;;;;;;4927744;29;20090;-58
2021/08/26 02:11:18;;;;;;;11.20;5.93;;;40.80;24.50;;;;;;4927453;29;20139;-62
2021/08/26 02:13:44;;;;;;;17.35;8.43;;;40.70;24.90;;;;;;4926057;29;20099;-56
2021/08/26 02:16:14;;;;;;;18.17;7.68;;;40.60;24.70;;;;;;4927304;29;21489;-58
2021/08/26 02:18:45;;;;;;;10.52;6.85;;;40.60;24.80;;;;;;4927353;29;20091;-59
2021/08/26 02:21:12;;;;;;;9.30;6.25;;;40.40;24.90;;;;;;4926109;29;20083;-58
2021/08/26 02:23:38;;;;;;;10.63;6.10;;;40.30;25.10;;;;;;4930365;29;20084;-58
2021/08/26 02:26:05;;;;;;;16.75;6.80;;;40.40;24.20;;;;;;4926384;29;20422;-59
2021/08/26 02:28:32;;;;;;;14.43;6.95;;;40.50;23.60;;;;;;4925153;29;20072;-56
2021/08/26 02:30:59;;;;;;;18.25;8.00;;;40.50;24.10;;;;;;4925135;29;20220;-60
2021/08/26 02:33:25;;;;;;;12.43;7.90;;;40.40;23.90;;;;;;4928698;29;20122;-60
2021/08/26 02:35:52;;;;;;;12.15;6.70;;;40.30;24.00;;;;;;4924723;29;20084;-59
2021/08/26 02:38:18;;;;;;;13.23;7.97;;;40.30;24.00;;;;;;4931964;29;20084;-58
2021/08/26 02:40:45;;;;;;;10.65;7.45;;;40.20;23.90;;;;;;4908305;29;20172;-56
2021/08/26 02:43:11;;;;;;;15.30;7.35;;;40.30;23.50;;;;;;4928421;29;20084;-60
2021/08/26 02:45:38;;;;;;;16.65;8.15;;;40.30;23.90;;;;;;4928082;29;20076;-58
2021/08/26 02:48:05;;;;;;;14.70;8.15;;;40.30;23.10;;;;;;4927505;29;20203;-59
2021/08/26 02:50:32;;;;;;;16.30;7.88;;;40.30;23.20;;;;;;4925248;29;20081;-60
2021/08/26 02:52:58;;;;;;;18.83;9.27;;;40.30;23.20;;;;;;4921802;29;20092;-56
2021/08/26 02:55:25;;;;;;;23.83;7.80;;;40.20;23.00;;;;;;4928264;29;20076;-54
2021/08/26 02:57:52;;;;;;;20.88;8.57;;;40.20;22.70;;;;;;4931045;29;20076;-60
2021/08/26 03:00:18;;;;;;;21.00;9.40;;;40.20;22.90;;;;;;4926685;29;20126;-58
2021/08/26 03:02:45;;;;;;;23.38;8.73;;;40.10;23.00;;;;;;4928125;29;20083;-55
2021/08/26 03:05:12;;;;;;;15.02;7.63;;;40.00;23.00;;;;;;4924400;29;20158;-58
2021/08/26 03:07:38;;;;;;;12.95;7.80;;;40.00;23.10;;;;;;4923949;29;20081;-56
2021/08/26 03:10:05;;;;;;;12.50;8.02;;;39.90;23.20;;;;;;4915266;29;20092;-58
2021/08/26 03:12:32;;;;;;;18.23;8.57;;;39.80;23.30;;;;;;4928888;29;20434;-56
2021/08/26 03:14:59;;;;;;;9.60;7.22;;;39.70;23.30;;;;;;4929913;29;20163;-57
2021/08/26 03:17:26;;;;;;;13.88;7.75;;;39.60;23.50;;;;;;4923117;29;20119;-57
2021/08/26 03:19:52;;;;;;;13.27;7.90;;;39.50;23.50;;;;;;4916568;29;20118;-56
2021/08/26 03:22:19;;;;;;;16.00;8.05;;;39.50;23.70;;;;;;4915683;29;20086;-56
2021/08/26 03:24:45;;;;;;;10.60;7.20;;;39.40;23.60;;;;;;4923484;29;20088;-56
2021/08/26 03:27:12;;;;;;;13.30;7.95;;;39.30;23.70;;;;;;4901718;29;20767;-57
2021/08/26 03:29:39;;;;;;;14.45;7.43;;;39.30;23.90;;;;;;4922110;29;20498;-57
2021/08/26 03:32:05;;;;;;;9.55;7.20;;;39.20;23.90;;;;;;4927023;29;20104;-57
2021/08/26 03:34:32;;;;;;;12.18;7.18;;;39.20;23.90;;;;;;4884049;29;20115;-56
2021/08/26 03:36:59;;;;;;;9.10;7.20;;;39.10;24.00;;;;;;4918419;29;20087;-59
2021/08/26 03:39:25;;;;;;;15.85;7.57;;;39.10;24.10;;;;;;4915659;29;20084;-58
2021/08/26 03:41:52;;;;;;;9.13;7.05;;;39.00;24.30;;;;;;4924941;29;20167;-56
2021/08/26 03:44:18;;;;;;;9.63;6.32;;;38.90;24.50;;;;;;4928000;29;20083;-60
2021/08/26 03:46:45;;;;;;;18.73;7.47;;;38.80;24.70;;;;;;4918876;29;20100;-57
2021/08/26 03:49:11;;;;;;;16.33;7.25;;;38.70;24.80;;;;;;4919835;29;20263;-59
2021/08/26 03:51:38;;;;;;;15.35;7.25;;;38.60;25.00;;;;;;4919038;29;20306;-56
2021/08/26 03:54:05;;;;;;;12.80;7.65;;;38.40;24.80;;;;;;4929948;29;20104;-58
2021/08/26 03:56:32;;;;;;;13.95;6.38;;;38.30;25.20;;;;;;4927931;29;20091;-58
2021/08/26 03:58:59;;;;;;;18.73;7.72;;;38.30;25.40;;;;;;4931511;29;20141;-56
2021/08/26 04:01:25;;;;;;;15.13;6.80;;;38.20;25.50;;;;;;4923687;29;20476;-61
2021/08/26 04:03:52;;;;;;;13.85;6.90;;;38.20;25.50;;;;;;4924055;29;20457;-57
2021/08/26 04:06:18;;;;;;;15.40;7.80;;;38.10;25.10;;;;;;4930887;29;20085;-61
2021/08/26 04:08:45;;;;;;;15.57;7.57;;;38.10;25.60;;;;;;4931099;29;20060;-55
2021/08/26 04:11:12;;;;;;;16.13;7.90;;;38.00;25.70;;;;;;4902096;29;20080;-60
2021/08/26 04:13:38;;;;;;;14.07;7.88;;;38.00;25.80;;;;;;4931588;29;20099;-58
2021/08/26 04:16:05;;;;;;;12.55;7.75;;;37.90;25.80;;;;;;4930469;29;20425;-58
2021/08/26 04:18:31;;;;;;;13.50;8.02;;;37.80;25.80;;;;;;4930839;29;20362;-57
2021/08/26 04:20:58;;;;;;;21.08;9.13;;;37.80;25.90;;;;;;4930213;29;20073;-58
2021/08/26 04:23:25;;;;;;;14.15;7.95;;;37.70;26.00;;;;;;4931654;29;20088;-57
2021/08/26 04:25:51;;;;;;;16.67;8.75;;;37.70;26.10;;;;;;4910466;29;20115;-59
2021/08/26 04:28:18;;;;;;;17.70;9.30;;;37.60;26.20;;;;;;4929798;29;20119;-59
2021/08/26 04:30:44;;;;;;;14.02;8.48;;;37.60;26.10;;;;;;4928557;29;20175;-60
2021/08/26 04:33:11;;;;;;;10.93;8.57;;;37.60;26.20;;;;;;4930300;29;20091;-57
2021/08/26 04:35:38;;;;;;;16.85;8.98;;;37.50;26.40;;;;;;4932386;29;20414;-58
2021/08/26 04:38:04;;;;;;;14.93;9.15;;;37.50;26.40;;;;;;4926698;29;20088;-56
2021/08/26 04:40:31;;;;;;;15.25;9.25;;;37.40;26.50;;;;;;4928766;29;20143;-55
2021/08/26 04:42:58;;;;;;;15.05;8.35;;;37.30;26.70;;;;;;4931151;29;20084;-58
2021/08/26 04:45:25;;;;;;;15.23;8.52;;;37.30;26.80;;;;;;4933222;29;20108;-57
2021/08/26 04:47:51;;;;;;;18.13;8.73;;;37.20;26.80;;;;;;4916870;29;20521;-55
2021/08/26 04:50:18;;;;;;;13.80;8.32;;;37.20;26.70;;;;;;4926041;29;20076;-55
2021/08/26 04:52:44;;;;;;;12.45;8.80;;;;;;;;;;4923235;29;20526;-57
2021/08/26 04:55:11;;;;;;;14.02;8.68;;;37.20;26.40;;;;;;4929911;29;20115;-56
2021/08/26 04:57:38;;;;;;;19.60;9.07;;;37.10;26.50;;;;;;4927395;29;20080;-56
2021/08/26 05:00:06;;;;;;;16.88;9.27;;;37.00;26.90;;;;;;4924553;29;20081;-57
2021/08/26 05:02:32;;;;;;;14.18;9.07;;;37.00;27.00;;;;;;4929459;29;20084;-59
2021/08/26 05:04:59;;;;;;;15.05;8.55;;;36.90;27.00;;;;;;4928582;29;20084;-58
2021/08/26 05:07:26;;;;;;;15.55;8.05;;;36.80;27.20;;;;;;4924637;29;20593;-57
2021/08/26 05:09:52;;;;;;;11.25;8.23;;;36.80;27.50;;;;;;4928242;29;20072;-55
2021/08/26 05:12:19;;;;;;;11.38;7.97;;;36.80;27.50;;;;;;4914600;29;20080;-57
2021/08/26 05:14:46;;;;;;;12.05;7.53;;;36.70;27.80;;;;;;4927546;29;20159;-59
2021/08/26 05:17:12;;;;;;;10.80;8.32;;;36.60;27.50;;;;;;4924561;29;20095;-57
2021/08/26 05:19:39;;;;;;;11.20;8.13;;;36.60;27.50;;;;;;4925497;29;20401;-57
2021/08/26 05:22:06;;;;;;;12.10;7.90;;;36.60;28.00;;;;;;4925289;29;20077;-57
2021/08/26 05:24:32;;;;;;;11.35;7.82;;;36.50;27.90;;;;;;4928343;29;22743;-57
2021/08/26 05:26:59;;;;;;;12.40;8.07;;;36.50;27.80;;;;;;4926974;29;20081;-56
2021/08/26 05:29:26;;;;;;;11.23;8.40;;;36.50;27.80;;;;;;4927423;29;20537;-57
2021/08/26 05:31:53;;;;;;;14.52;8.25;;;36.50;27.80;;;;;;4927005;29;20091;-57
2021/08/26 05:34:19;;;;;;;11.25;8.10;;;36.50;27.70;;;;;;4926432;29;20099;-56
2021/08/26 05:36:46;;;;;;;15.38;7.53;;;36.50;27.90;;;;;;4925184;29;20076;-56
2021/08/26 05:39:13;;;;;;;13.07;8.25;;;;;;;;;;4921432;29;20076;-56
2021/08/26 05:41:44;;;;;;;12.23;8.07;;;36.30;27.60;;;;;;4924769;29;20549;-56
2021/08/26 05:44:15;;;;;;;13.52;7.32;;;36.30;28.30;;;;;;4927244;29;20091;-57
2021/08/26 05:46:42;;;;;;;11.07;7.38;;;36.20;28.50;;;;;;4928019;29;20156;-58
2021/08/26 05:49:09;;;;;;;25.35;7.55;;;36.20;28.60;;;;;;4926970;29;20127;-56
2021/08/26 05:51:36;;;;;;;13.73;7.25;;;36.10;28.40;;;;;;4921974;29;20171;-57
2021/08/26 05:54:03;;;;;;;16.50;7.78;;;36.10;28.50;;;;;;4922635;29;20113;-57
2021/08/26 05:56:31;;;;;;;16.45;7.25;;;36.20;28.60;;;;;;4925879;29;20661;-57
2021/08/26 05:58:57;;;;;;;13.20;7.03;;;36.00;29.10;;;;;;4926791;29;20075;-58
2021/08/26 06:01:29;;;;;;;12.65;6.72;;;36.00;32.90;;;;;;4926242;29;20069;-58
2021/08/26 06:03:56;;;;;;;11.20;7.60;;;36.00;28.90;;;;;;4924688;29;20088;-59
2021/08/26 06:06:23;;;;;;;12.65;7.47;;;35.90;29.00;;;;;;4923902;29;20084;-59
2021/08/26 06:08:50;;;;;;;14.07;8.00;;;35.80;29.10;;;;;;4929062;29;20092;-58
2021/08/26 06:11:16;;;;;;;14.77;7.78;;;35.80;29.30;;;;;;4924134;29;20227;-57
2021/08/26 06:13:43;;;;;;;17.65;7.20;;;35.70;29.80;;;;;;4928744;28;20110;-58
2021/08/26 06:16:09;;;;;;;17.73;7.55;;;35.70;29.20;;;;;;4927024;29;20080;-58
2021/08/26 06:18:36;;;;;;;14.82;7.03;;;35.70;29.20;;;;;;4925191;29;20172;-58
2021/08/26 06:21:02;;;;;;;14.88;7.80;;;35.60;29.60;;;;;;4925453;29;20082;-58
2021/08/26 06:23:29;;;;;;;13.50;7.47;;;35.60;29.10;;;;;;4925606;29;20088;-60
2021/08/26 06:25:55;;;;;;;16.83;7.90;;;35.60;29.10;;;;;;4926308;29;20108;-57
2021/08/26 06:28:22;;;;;;;10.95;7.15;;;35.60;29.20;;;;;;4927519;29;20084;-56
2021/08/26 06:30:48;;;;;;;19.60;7.53;;;35.60;29.10;;;;;;4926039;29;20076;-57
2021/08/26 06:33:15;;;;;;;16.92;7.40;;;35.60;29.00;;;;;;4925223;29;21715;-56
2021/08/26 06:35:41;;;;;;;11.93;7.45;;;35.60;29.10;;;;;;4924897;29;20546;-57
2021/08/26 06:38:08;;;;;;;12.15;7.25;;;35.60;29.10;;;;;;4927320;29;20104;-58
2021/08/26 06:40:35;;;;;;;11.95;7.13;;;35.50;29.20;;;;;;4927708;29;20212;-56
2021/08/26 06:43:01;;;;;;;11.90;7.00;;;35.40;29.30;;;;;;4927476;29;20083;-58
2021/08/26 06:45:28;;;;;;;10.48;7.68;;;35.30;29.40;;;;;;4928929;29;20092;-58
2021/08/26 06:47:54;;;;;;;12.15;7.38;;;35.30;29.40;;;;;;4926090;29;20112;-57
2021/08/26 06:50:21;;;;;;;12.10;7.80;;;35.30;29.50;;;;;;4926082;29;20084;-58
2021/08/26 06:52:47;;;;;;;12.15;7.45;;;35.20;29.50;;;;;;4926138;29;20080;-53
2021/08/26 06:55:14;;;;;;;12.48;7.22;;;35.20;29.70;;;;;;4920123;29;20085;-56
2021/08/26 06:57:40;;;;;;;14.40;7.70;;;35.10;29.60;;;;;;4927443;29;20096;-57
2021/08/26 07:00:08;;;;;;;16.17;7.25;;;35.10;29.60;;;;;;4928484;29;20083;-57
2021/08/26 07:02:35;;;;;;;10.20;7.38;;;35.10;29.40;;;;;;4926456;29;20083;-54
2021/08/26 07:05:02;;;;;;;15.30;7.40;;;35.10;29.20;;;;;;4914007;29;20088;-56
2021/08/26 07:07:29;;;;;;;13.52;6.90;;;35.20;29.00;;;;;;4928376;29;20530;-56
2021/08/26 07:09:55;;;;;;;17.25;7.43;;;35.20;28.70;;;;;;4927668;29;22490;-57
2021/08/26 07:12:22;;;;;;;12.35;6.82;;;35.20;28.60;;;;;;4926338;29;20462;-54
2021/08/26 07:14:48;;;;;;;18.75;7.07;;;35.20;28.70;;;;;;4925525;29;20103;-56
2021/08/26 07:17:15;;;;;;;17.15;7.45;;;35.20;28.60;;;;;;4926929;29;20132;-54
2021/08/26 07:19:41;;;;;;;16.23;7.30;;;35.20;28.50;;;;;;4927048;29;20586;-58
2021/08/26 07:22:08;;;;;;;16.85;7.57;;;35.20;28.50;;;;;;4907700;29;20128;-54
2021/08/26 07:24:34;;;;;;;15.63;6.97;;;35.20;28.50;;;;;;4927352;29;20473;-57
2021/08/26 07:27:01;;;;;;;27.83;7.65;;;35.20;28.50;;;;;;4925338;29;20084;-57
2021/08/26 07:29:27;;;;;;;16.23;6.78;;;35.20;28.60;;;;;;4926066;29;20538;-58
2021/08/26 07:31:54;;;;;;;10.13;6.50;;;35.20;28.70;;;;;;4925492;29;20080;-60
2021/08/26 07:34:21;;;;;;;9.60;5.90;;;35.30;28.80;;;;;;4927066;29;20652;-55
2021/08/26 07:36:47;;;;;;;10.77;5.50;;;35.20;28.80;;;;;;4926636;29;20072;-56
2021/08/26 07:39:14;;;;;;;11.52;5.57;;;35.30;28.70;;;;;;4924392;29;20549;-57
2021/08/26 07:41:40;;;;;;;8.13;5.78;;;35.40;28.70;;;;;;4929617;29;20080;-56
2021/08/26 07:44:07;;;;;;;8.05;6.00;;;35.30;28.60;;;;;;4930769;29;20526;-57
2021/08/26 07:46:33;;;;;;;9.20;5.57;;;35.40;28.50;;;;;;4931249;29;20080;-54
2021/08/26 07:49:00;;;;;;;9.05;5.50;;;35.40;28.50;;;;;;4931720;29;20111;-58
2021/08/26 07:51:26;;;;;;;16.20;5.28;;;35.30;28.50;;;;;;4929454;29;20546;-58
2021/08/26 07:53:53;;;;;;;7.25;5.70;;;35.30;28.60;;;;;;4930564;29;20512;-58
2021/08/26 07:56:19;;;;;;;7.55;5.10;;;35.30;28.60;;;;;;4930689;29;20076;-58
2021/08/26 07:58:46;;;;;;;8.00;4.50;;;35.30;28.60;;;;;;4928827;29;20096;-56
2021/08/26 08:01:12;;;;;;;7.43;4.97;;;35.30;28.60;;;;;;4929193;29;20083;-54
2021/08/26 08:03:39;;;;;;;6.05;4.60;;;35.20;28.70;;;;;;4929068;29;20076;-56
2021/08/26 08:06:06;;;;;;;10.98;4.90;;;35.30;28.70;;;;;;4928048;29;20072;-57
2021/08/26 08:08:32;;;;;;;9.07;4.93;;;35.20;28.50;;;;;;4933088;29;20546;-57
2021/08/26 08:11:00;;;;;;;9.18;5.05;;;35.20;28.50;;;;;;4929180;29;20103;-54
2021/08/26 08:13:26;;;;;;;8.73;5.68;;;35.20;28.50;;;;;;4928069;29;20100;-57
2021/08/26 08:15:53;;;;;;;5.75;4.90;;;35.20;28.70;;;;;;4932526;29;20091;-57
2021/08/26 08:18:20;;;;;;;9.65;4.95;;;35.20;28.60;;;;;;4930280;29;20172;-53
2021/08/26 08:20:46;;;;;;;5.85;4.78;;;35.20;28.70;;;;;;4928503;29;20080;-55
2021/08/26 08:23:13;;;;;;;7.55;4.65;;;35.10;28.90;;;;;;4930113;29;20085;-57
2021/08/26 08:25:40;;;;;;;6.47;4.80;;;35.10;28.70;;;;;;4929280;29;20075;-56
2021/08/26 08:28:15;;;;;;;5.90;4.95;;;35.00;28.90;;;;;;4930466;29;20087;-58
2021/08/26 08:30:42;;;;;;;6.00;4.93;;;35.00;29.00;;;;;;4930592;29;20110;-57
2021/08/26 08:33:10;;;;;;;6.65;4.75;;;35.00;29.00;;;;;;4929185;29;20097;-54
2021/08/26 08:35:37;;;;;;;9.38;5.35;;;35.00;29.10;;;;;;4931172;29;20088;-57
2021/08/26 08:38:04;;;;;;;5.95;4.85;;;34.90;29.10;;;;;;4915134;29;20163;-57
2021/08/26 08:40:31;;;;;;;7.72;4.50;;;34.90;29.10;;;;;;4929972;29;20547;-56
2021/08/26 08:42:58;;;;;;;7.88;4.63;;;35.00;29.20;;;;;;4927195;29;20167;-56
2021/08/26 08:45:25;;;;;;;8.63;4.88;;;34.90;29.30;;;;;;4930474;29;20123;-56
2021/08/26 08:47:55;;;;;;;6.47;4.85;;;34.90;29.20;;;;;;4930142;29;20108;-56
2021/08/26 08:50:26;;;;;;;6.68;4.63;;;34.90;29.30;;;;;;4928920;29;20144;-56
2021/08/26 08:52:53;;;;;;;5.85;4.13;;;34.90;29.40;;;;;;4930953;29;20080;-55
2021/08/26 08:55:20;;;;;;;7.00;4.30;;;35.00;29.50;;;;;;4929106;29;20084;-57
2021/08/26 08:57:47;;;;;;;5.88;4.25;;;34.90;29.30;;;;;;4930002;29;20099;-57
2021/08/26 09:00:17;;;;;;;5.20;4.00;;;34.90;29.40;;;;;;4927442;29;20099;-57
2021/08/26 09:02:44;;;;;;;5.32;4.00;;;34.90;29.50;;;;;;4928935;29;20068;-57
2021/08/26 09:05:11;;;;;;;5.18;4.05;;;35.00;29.40;;;;;;4927642;29;20088;-58
2021/08/26 09:07:38;;;;;;;5.03;3.45;;;34.90;29.50;;;;;;4927685;29;20459;-57
2021/08/26 09:10:08;;;;;;;6.80;3.72;;;34.90;29.50;;;;;;4929221;29;20139;-54
2021/08/26 09:12:44;;;;;;;4.32;3.70;;;35.00;29.40;;;;;;4928219;29;20076;-57
2021/08/26 09:15:20;;;;;;;5.63;3.60;;;35.00;29.40;;;;;;4931588;29;20096;-52
2021/08/26 09:17:48;;;;;;;4.53;3.70;;;35.00;29.50;;;;;;4926529;29;20076;-56
2021/08/26 09:20:18;;;;;;;4.95;3.47;;;34.90;29.60;;;;;;4929778;29;20530;-57
2021/08/26 09:22:46;;;;;;;7.28;3.70;;;34.90;29.70;;;;;;4923035;29;20073;-57
2021/08/26 09:25:23;;;;;;;6.50;3.50;;;34.80;29.70;;;;;;4929158;29;20218;-53
2021/08/26 09:27:49;;;;;;;;;;;34.80;29.80;;;;;;4927826;29;20076;-53
2021/08/26 09:30:19;;;;;;;5.07;3.33;;;34.80;29.90;;;;;;4925024;29;19967;-55
2021/08/26 09:32:48;;;;;;;5.78;3.22;;;34.80;29.90;;;;;;4927431;29;20419;-52
2021/08/26 09:35:17;;;;;;;4.25;3.17;;;34.80;30.00;;;;;;4928666;29;20076;-54
2021/08/26 09:37:46;;;;;;;6.75;3.38;;;34.80;30.00;;;;;;4926834;29;20099;-55
2021/08/26 09:40:14;;;;;;;4.93;3.40;;;34.80;30.00;;;;;;4926860;29;20550;-53
2021/08/26 09:42:41;;;;;;;6.00;2.97;;;34.80;30.00;;;;;;4931496;29;20159;-56
2021/08/26 09:45:18;;;;;;;4.47;3.00;;;34.80;30.20;;;;;;4930717;29;20526;-53
2021/08/26 09:48:12;;;;;;;4.40;3.08;;;34.80;30.10;;;;;;4927237;29;20144;-54
2021/08/26 09:50:40;;;;;;;3.92;2.80;;;34.80;30.10;;;;;;4929099;29;20127;-52
2021/08/26 09:53:07;;;;;;;4.63;2.90;;;34.80;30.00;;;;;;4928541;29;20206;-54
2021/08/26 09:55:49;;;;;;;7.00;3.03;;;34.80;30.20;;;;;;4931281;29;20076;-55
2021/08/26 09:58:18;;;;;;;5.35;3.00;;;34.80;30.10;;;;;;4927824;29;20159;-57
2021/08/26 10:00:45;;;;;;;5.57;2.72;;;34.70;30.20;;;;;;4928319;29;20080;-55
2021/08/26 10:03:14;;;;;;;6.75;2.67;;;34.70;30.30;;;;;;4928582;29;20171;-56
2021/08/26 10:05:42;;;;;;;8.48;3.05;;;34.80;30.40;;;;;;4928167;29;20648;-56
2021/08/26 10:08:13;;;;;;;4.68;2.92;;;34.80;30.30;;;;;;4924178;29;20084;-56
2021/08/26 10:10:41;;;;;;;3.90;2.58;;;34.80;30.20;;;;;;4926603;29;20120;-57
2021/08/26 10:13:11;;;;;;;4.85;3.00;;;34.80;30.20;;;;;;4928605;29;20120;-57
2021/08/26 10:15:39;;;;;;;4.28;2.63;;;34.80;30.10;;;;;;4931500;29;20112;-56
2021/08/26 10:18:06;;;;;;;4.10;3.03;;;34.80;30.20;;;;;;4928635;29;20073;-57
2021/08/26 10:20:34;;;;;;;5.35;2.90;;;34.80;30.20;;;;;;4927279;29;20076;-55
2021/08/26 10:23:02;;;;;;;7.00;2.50;;;34.80;30.30;;;;;;4911784;29;21595;-56
2021/08/26 10:25:29;;;;;;;3.75;2.58;;;34.70;30.30;;;;;;4911278;29;20084;-56
2021/08/26 10:27:58;;;;;;;3.72;2.85;;;34.70;30.40;;;;;;4928120;29;20079;-56
2021/08/26 10:30:33;;;;;;;6.05;2.78;;;34.60;30.50;;;;;;4926592;29;20079;-54
2021/08/26 10:33:14;;;;;;;4.30;2.47;;;34.60;30.90;;;;;;4928874;29;20441;-56
2021/08/26 10:35:53;;;;;;;2.97;2.58;;;34.50;31.00;;;;;;4925493;29;20081;-54
2021/08/26 10:38:20;;;;;;;2.72;2.40;;;34.50;31.30;;;;;;4928054;29;20082;-53
2021/08/26 10:40:47;;;;;;;4.63;2.67;;;34.40;31.60;;;;;;4925495;29;20164;-54
2021/08/26 10:43:37;;;;;;;4.18;3.00;;;34.30;31.80;;;;;;4925889;29;20088;-55
2021/08/26 10:46:06;;;;;;;5.68;2.75;;;34.20;31.80;;;;;;4930801;29;20122;-56
2021/08/26 10:48:35;;;;;;;5.47;2.50;;;34.20;32.00;;;;;;4927643;29;20485;-55
2021/08/26 10:51:12;;;;;;;4.22;2.78;;;34.10;32.00;;;;;;4928759;29;20284;-54
2021/08/26 10:53:47;;;;;;;6.50;2.65;;;34.10;32.20;;;;;;4929481;29;20156;-53
2021/08/26 10:56:23;;;;;;;5.30;2.78;;;34.00;32.60;;;;;;4926228;29;20090;-56
2021/08/26 10:59:00;;;;;;;3.67;2.70;;;34.00;32.50;;;;;;4927466;29;20123;-57
2021/08/26 11:01:38;;;;;;;3.97;2.40;;;33.90;32.70;;;;;;4925936;29;20100;-56
2021/08/26 11:04:20;;;;;;;5.28;2.80;;;33.80;32.60;;;;;;4926452;29;20084;-54
2021/08/26 11:06:48;;;;;;;9.85;3.00;;;33.80;33.10;;;;;;4929956;29;20107;-56
2021/08/26 11:09:14;;;;;;;7.32;2.58;;;33.70;33.50;;;;;;4928455;29;20515;-55
2021/08/26 11:11:47;;;;;;;6.95;3.15;;;33.60;33.60;;;;;;4927290;29;20140;-55
2021/08/26 11:14:20;;;;;;;4.43;2.40;;;33.60;34.00;;;;;;4928401;29;20108;-57
2021/08/26 11:16:54;;;;;;;8.77;2.83;;;33.50;33.40;;;;;;4916550;29;20081;-56
2021/08/26 11:19:21;;;;;;;4.65;2.83;;;33.40;33.50;;;;;;4929388;29;20107;-56
2021/08/26 11:21:47;;;;;;;4.72;2.60;;;33.40;33.40;;;;;;4929999;29;20080;-57
2021/08/26 11:24:18;;;;;;;2.78;2.55;;;33.40;33.60;;;;;;4931532;29;20087;-54
2021/08/26 11:26:56;;;;;;;6.40;2.70;;;33.40;33.50;;;;;;4930902;29;20068;-54
2021/08/26 11:29:23;;;;;;;4.32;3.10;;;33.30;33.60;;;;;;4930376;29;20084;-57
2021/08/26 11:31:55;;;;;;;2.40;2.20;;;33.30;33.60;;;;;;4931716;29;20080;-54
2021/08/26 11:34:34;;;;;;;4.68;2.65;;;33.30;33.90;;;;;;4933410;29;20457;-56
2021/08/26 11:37:10;;;;;;;6.85;2.55;;;33.30;33.60;;;;;;4931974;29;20076;-58
2021/08/26 11:39:40;;;;;;;4.63;2.53;;;33.20;33.70;;;;;;4929757;29;20190;-54
2021/08/26 11:42:21;;;;;;;6.60;3.10;;;33.20;34.00;;;;;;4931781;29;20080;-55
2021/08/26 11:45:23;;;;;;;8.50;2.90;;;33.10;34.50;;;;;;4932255;29;20131;-56
2021/08/26 11:48:03;;;;;;;5.68;3.22;;;33.00;34.80;;;;;;4930950;29;20139;-54
2021/08/26 11:50:40;;;;;;;9.77;3.50;;;32.90;35.10;;;;;;4933367;29;20083;-55
2021/08/26 11:53:09;;;;;;;4.85;3.28;;;32.90;35.10;;;;;;4930038;29;20134;-58
2021/08/26 11:55:44;;;;;;;11.32;3.50;;;32.80;35.20;;;;;;4930404;29;20084;-55
2021/08/26 11:58:15;;;;;;;5.88;3.10;;;32.80;35.50;;;;;;4929419;29;20090;-56
2021/08/26 12:00:53;;;;;;;4.55;2.97;;;32.70;35.70;;;;;;4929483;29;20502;-57
2021/08/26 12:03:21;;;;;;;7.38;3.10;;;32.70;36.10;;;;;;4930063;29;20076;-55
2021/08/26 12:05:47;;;;;;;9.23;3.47;;;32.60;36.10;;;;;;4928794;29;20174;-53
2021/08/26 12:08:14;;;;;;;10.60;3.55;;;32.60;36.10;;;;;;4930409;29;20072;-55
2021/08/26 12:10:45;;;;;;;12.48;3.72;;;32.50;36.40;;;;;;4928905;29;21639;-56
2021/08/26 12:13:19;;;;;;;12.43;3.60;;;32.50;36.40;;;;;;4930236;29;20108;-56
2021/08/26 12:15:53;;;;;;;14.32;3.75;;;32.40;36.20;;;;;;4931395;29;20077;-55
2021/08/26 12:18:25;;;;;;;9.73;3.70;;;32.40;36.00;;;;;;4932097;29;20112;-56
2021/08/26 12:20:55;;;;;;;13.05;3.45;;;32.40;36.20;;;;;;4930276;29;20562;-57
2021/08/26 12:23:29;;;;;;;12.93;3.42;;;32.40;36.30;;;;;;4929576;29;20111;-57
2021/08/26 12:26:19;;;;;;;8.07;3.15;;;32.20;36.50;;;;;;4930202;29;20083;-55
2021/08/26 12:28:58;;;;;;;10.90;3.20;;;32.20;36.60;;;;;;4929561;29;20071;-56
2021/08/26 12:31:25;;;;;;;7.97;3.50;;;32.20;36.60;;;;;;4932442;29;20100;-55
2021/08/26 12:34:27;;;;;;;7.03;3.63;;;32.20;37.00;;;;;;4931345;29;20096;-55
2021/08/26 12:37:03;;;;;;;11.27;3.60;;;32.20;36.70;;;;;;4928771;29;20119;-53
2021/08/26 12:39:30;;;;;;;9.35;3.20;;;32.10;36.40;;;;;;4930440;29;21853;-56
2021/08/26 12:42:06;;;;;;;11.60;3.67;;;32.10;36.20;;;;;;4928737;29;20080;-56
2021/08/26 12:44:33;;;;;;;5.65;2.72;;;32.20;35.90;;;;;;4928137;29;20111;-55
2021/08/26 12:47:02;;;;;;;8.30;3.15;;;32.20;36.10;;;;;;4930116;29;20135;-54
2021/08/26 12:49:43;;;;;;;4.70;2.80;;;32.20;35.90;;;;;;4930361;29;20080;-57
2021/08/26 12:52:11;;;;;;;6.68;3.20;;;32.20;35.80;;;;;;4929581;29;20069;-57
2021/08/26 12:54:41;;;;;;;6.20;3.22;;;32.20;35.90;;;;;;4929670;29;20092;-56